Time;durP1;ratioP1;P1;durP2;ratioP2;P2;SDS_P1;SDS_P2;PMS_P1;PMS_P2;Temp;Humidity;BMP_temperature;BMP_pressure;BME280_temperature;BME280_humidity;BME280_pressure;Samples;Min_cycle;Max_cycle;Signal;HPM_P1;HPM_P2
2021/07/03 00:00:30;;;;;;;5.90;5.25;;;16.00;70.10;;;;;;5086452;27;20040;-65
2021/07/03 00:02:56;;;;;;;6.90;5.50;;;16.00;70.20;;;;;;5084392;28;20046;-65
2021/07/03 00:05:21;;;;;;;6.18;5.35;;;16.00;70.30;;;;;;5079445;27;20058;-65
2021/07/03 00:07:47;;;;;;;6.95;5.50;;;15.90;70.40;;;;;;5088310;28;20426;-65
2021/07/03 00:10:13;;;;;;;6.88;5.65;;;15.90;70.40;;;;;;5083994;28;20085;-65
2021/07/03 00:12:39;;;;;;;6.93;5.55;;;15.90;70.60;;;;;;5085168;27;20036;-65
2021/07/03 00:15:09;;;;;;;6.25;5.30;;;15.80;70.60;;;;;;5076950;27;20032;-65
2021/07/03 00:17:35;;;;;;;7.53;5.65;;;15.80;71.90;;;;;;5084775;27;20028;-65
2021/07/03 00:20:01;;;;;;;6.30;5.53;;;15.80;71.20;;;;;;5087499;28;20047;-65
2021/07/03 00:22:27;;;;;;;9.63;5.63;;;15.70;71.30;;;;;;5083922;28;20617;-65
2021/07/03 00:24:52;;;;;;;5.93;5.32;;;15.70;71.40;;;;;;5076613;28;20036;-65
2021/07/03 00:27:18;;;;;;;7.53;5.20;;;15.60;71.30;;;;;;5089954;27;20416;-65
2021/07/03 00:29:44;;;;;;;5.60;4.93;;;15.60;71.30;;;;;;5075836;28;20036;-65
2021/07/03 00:32:09;;;;;;;5.97;4.85;;;15.60;71.40;;;;;;5086902;28;20047;-65
2021/07/03 00:34:35;;;;;;;6.68;5.03;;;15.60;71.40;;;;;;5078206;28;20028;-65
2021/07/03 00:37:01;;;;;;;5.55;4.63;;;15.60;71.50;;;;;;5078609;28;20039;-65
2021/07/03 00:39:27;;;;;;;6.25;4.82;;;15.60;71.40;;;;;;5089573;27;20040;-65
2021/07/03 00:41:53;;;;;;;5.25;4.75;;;15.60;71.40;;;;;;5084930;27;20035;-67
2021/07/03 00:44:32;;;;;;;4.97;4.47;;;15.60;71.40;;;;;;5085385;28;20887;-67
2021/07/03 00:47:01;;;;;;;5.13;4.40;;;15.60;71.80;;;;;;5086190;28;20067;-67
2021/07/03 00:49:27;;;;;;;4.50;4.10;;;15.60;71.60;;;;;;5085990;27;20123;-68
2021/07/03 00:51:54;;;;;;;5.18;4.05;;;15.60;71.10;;;;;;5082484;28;20119;-67
2021/07/03 00:54:21;;;;;;;4.78;4.25;;;15.60;71.10;;;;;;5077091;28;20056;-67
2021/07/03 00:56:48;;;;;;;5.65;4.00;;;15.60;70.90;;;;;;5085630;27;20589;-67
2021/07/03 00:59:14;;;;;;;4.68;4.05;;;15.60;71.80;;;;;;5084713;28;20122;-68
2021/07/03 01:01:40;;;;;;;5.28;3.85;;;15.60;70.70;;;;;;5087634;28;20053;-68
2021/07/03 01:04:05;;;;;;;4.80;4.00;;;15.60;70.60;;;;;;5085637;28;20149;-67
2021/07/03 01:06:31;;;;;;;4.88;4.38;;;15.60;70.40;;;;;;5086252;27;20060;-67
2021/07/03 01:08:57;;;;;;;5.72;4.63;;;15.60;70.60;;;;;;5085609;27;20491;-68
2021/07/03 01:11:27;;;;;;;5.88;4.45;;;15.60;70.60;;;;;;5081652;28;20039;-68
2021/07/03 01:13:53;;;;;;;6.60;4.70;;;15.60;71.10;;;;;;5084586;28;20028;-68
2021/07/03 01:16:19;;;;;;;6.47;4.45;;;15.60;70.70;;;;;;5084138;28;20036;-67
2021/07/03 01:18:45;;;;;;;9.63;4.70;;;15.60;70.40;;;;;;5084263;28;20043;-68
2021/07/03 01:21:11;;;;;;;4.85;4.35;;;15.50;70.40;;;;;;5085879;27;20473;-68
2021/07/03 01:23:37;;;;;;;5.43;4.10;;;15.50;70.60;;;;;;5082812;28;20032;-68
2021/07/03 01:26:02;;;;;;;4.95;4.45;;;15.50;70.50;;;;;;5085811;27;20078;-67
2021/07/03 01:28:28;;;;;;;5.50;4.85;;;15.40;70.60;;;;;;5086280;27;20720;-68
2021/07/03 01:30:54;;;;;;;5.85;5.25;;;15.40;70.70;;;;;;5087639;28;20028;-67
2021/07/03 01:33:21;;;;;;;5.60;4.78;;;15.30;70.80;;;;;;5093284;27;20710;-67
2021/07/03 01:35:46;;;;;;;5.50;4.82;;;15.30;71.10;;;;;;5085375;28;20040;-67
2021/07/03 01:38:20;;;;;;;5.85;4.88;;;15.20;71.20;;;;;;5086889;27;20040;-67
2021/07/03 01:40:46;;;;;;;5.32;4.82;;;15.20;72.10;;;;;;5082707;27;20036;-67
2021/07/03 01:43:16;;;;;;;5.25;4.75;;;15.10;71.50;;;;;;5083617;28;20024;-68
2021/07/03 01:45:42;;;;;;;8.63;5.13;;;15.10;71.60;;;;;;5086861;27;20024;-67
2021/07/03 01:48:08;;;;;;;7.30;5.55;;;15.00;71.80;;;;;;5087853;28;20464;-67
2021/07/03 01:50:33;;;;;;;6.18;4.82;;;14.90;72.00;;;;;;5090345;27;20059;-67
2021/07/03 01:52:59;;;;;;;11.93;5.22;;;14.80;72.30;;;;;;5089330;27;20036;-67
2021/07/03 01:55:24;;;;;;;5.75;4.60;;;14.80;72.60;;;;;;5086220;28;20040;-67
2021/07/03 01:57:50;;;;;;;7.20;5.30;;;14.70;72.80;;;;;;5089725;27;20158;-67
2021/07/03 02:00:16;;;;;;;6.25;5.03;;;14.70;72.80;;;;;;5082988;28;20039;-67
2021/07/03 02:02:42;;;;;;;8.48;4.68;;;14.60;72.80;;;;;;5085157;27;20040;-68
2021/07/03 02:05:08;;;;;;;5.35;4.82;;;14.60;72.90;;;;;;5080156;28;20522;-67
2021/07/03 02:07:34;;;;;;;5.25;4.75;;;14.50;73.00;;;;;;5087274;27;20036;-67
2021/07/03 02:10:00;;;;;;;6.03;4.97;;;14.50;73.20;;;;;;5087444;27;20066;-67
2021/07/03 02:12:26;;;;;;;9.70;4.90;;;14.60;73.30;;;;;;5087726;27;20032;-67
2021/07/03 02:14:52;;;;;;;5.22;4.70;;;14.60;73.20;;;;;;5088109;28;20035;-67
2021/07/03 02:17:17;;;;;;;6.68;4.90;;;14.60;73.00;;;;;;5088595;27;20495;-67
2021/07/03 02:19:43;;;;;;;9.88;4.93;;;14.60;72.90;;;;;;5090448;28;20067;-67
2021/07/03 02:22:09;;;;;;;6.28;5.20;;;14.60;72.70;;;;;;5088162;27;20063;-67
2021/07/03 02:24:35;;;;;;;5.30;4.80;;;14.60;72.80;;;;;;5085098;27;20056;-67
2021/07/03 02:27:01;;;;;;;5.40;4.47;;;14.60;72.80;;;;;;5090062;28;20081;-67
2021/07/03 02:29:27;;;;;;;6.30;5.22;;;14.60;72.60;;;;;;5087102;28;20032;-67
2021/07/03 02:31:52;;;;;;;6.10;5.50;;;14.60;72.70;;;;;;5088522;28;20028;-67
2021/07/03 02:34:18;;;;;;;6.55;5.85;;;14.60;72.80;;;;;;5088403;27;20028;-68
2021/07/03 02:36:43;;;;;;;9.43;5.25;;;14.70;72.90;;;;;;5087812;27;20111;-67
2021/07/03 02:39:09;;;;;;;8.00;5.55;;;14.70;72.90;;;;;;5086918;28;20474;-67
2021/07/03 02:41:35;;;;;;;7.43;5.30;;;14.70;72.90;;;;;;5089738;27;20122;-67
2021/07/03 02:44:00;;;;;;;9.25;5.28;;;14.70;72.80;;;;;;5085458;27;20032;-68
2021/07/03 02:46:27;;;;;;;8.98;5.82;;;14.70;72.80;;;;;;5088538;27;20036;-67
2021/07/03 02:48:52;;;;;;;7.10;5.43;;;14.70;72.80;;;;;;5087694;27;20123;-67
2021/07/03 02:51:18;;;;;;;7.43;5.15;;;14.70;72.60;;;;;;5089563;27;20112;-68
2021/07/03 02:53:44;;;;;;;8.38;5.20;;;14.80;72.60;;;;;;5079381;28;20179;-67
2021/07/03 02:56:10;;;;;;;8.35;5.88;;;14.80;72.40;;;;;;5086908;28;20029;-67
2021/07/03 02:58:35;;;;;;;6.55;5.10;;;14.70;72.30;;;;;;5085849;27;20119;-67
2021/07/03 03:01:01;;;;;;;6.00;5.10;;;14.70;72.30;;;;;;5087177;27;20443;-67
2021/07/03 03:03:27;;;;;;;5.97;4.80;;;14.80;72.20;;;;;;5088489;28;20082;-67
2021/07/03 03:05:53;;;;;;;7.20;5.60;;;14.80;72.00;;;;;;5087943;27;20551;-67
2021/07/03 03:08:19;;;;;;;7.18;5.57;;;14.70;72.00;;;;;;5087802;28;20120;-67
2021/07/03 03:10:44;;;;;;;6.40;5.00;;;14.70;72.00;;;;;;5083699;27;20031;-67
2021/07/03 03:13:10;;;;;;;5.47;4.97;;;14.70;71.80;;;;;;5086498;27;20059;-67
2021/07/03 03:15:35;;;;;;;6.00;5.40;;;14.70;72.00;;;;;;5087824;28;20067;-67
2021/07/03 03:18:01;;;;;;;5.90;5.28;;;14.70;72.10;;;;;;5079285;28;20422;-67
2021/07/03 03:20:27;;;;;;;6.13;5.38;;;14.60;72.10;;;;;;5086728;27;20032;-65
2021/07/03 03:22:53;;;;;;;7.05;5.68;;;14.60;72.10;;;;;;5087525;28;20028;-65
2021/07/03 03:25:18;;;;;;;8.30;5.65;;;14.60;72.10;;;;;;5082592;28;20450;-65
2021/07/03 03:27:44;;;;;;;7.68;5.22;;;14.50;72.20;;;;;;5087119;28;20600;-65
2021/07/03 03:30:10;;;;;;;7.90;5.72;;;14.50;72.30;;;;;;5087693;27;20392;-65
2021/07/03 03:32:36;;;;;;;7.47;5.80;;;14.40;72.50;;;;;;5085722;27;20058;-65
2021/07/03 03:35:03;;;;;;;7.13;5.80;;;14.40;72.70;;;;;;5086098;28;20465;-65
2021/07/03 03:37:29;;;;;;;7.85;5.45;;;14.30;73.00;;;;;;5087304;27;20032;-65
2021/07/03 03:39:55;;;;;;;6.43;5.45;;;14.30;73.20;;;;;;5086311;28;20035;-64
2021/07/03 03:42:20;;;;;;;5.90;5.05;;;14.20;73.30;;;;;;5085693;28;20119;-65
2021/07/03 03:44:46;;;;;;;6.20;5.25;;;14.20;73.30;;;;;;5087441;27;20039;-65
2021/07/03 03:47:12;;;;;;;8.70;5.85;;;14.20;73.60;;;;;;5084967;28;20032;-65
2021/07/03 03:49:37;;;;;;;6.75;5.63;;;14.20;73.70;;;;;;5086467;27;20040;-65
2021/07/03 03:52:03;;;;;;;6.15;5.15;;;14.20;73.80;;;;;;5087560;28;20445;-65
2021/07/03 03:54:29;;;;;;;5.97;5.28;;;14.20;73.70;;;;;;5087236;27;20111;-65
2021/07/03 03:59:39;;;;;;;6.25;5.22;;;14.20;73.80;;;;;;5088127;28;20059;-67
2021/07/03 04:02:05;;;;;;;8.30;5.43;;;14.20;73.70;;;;;;5079103;28;20476;-67
2021/07/03 04:04:30;;;;;;;7.47;5.60;;;14.20;73.80;;;;;;5087520;27;20096;-67
2021/07/03 04:06:56;;;;;;;25.83;17.75;;;14.10;74.60;;;;;;5086767;28;20457;-67
2021/07/03 04:09:21;;;;;;;10.55;9.00;;;14.10;73.90;;;;;;5083622;27;20036;-67
2021/07/03 04:11:47;;;;;;;7.25;6.32;;;14.10;74.10;;;;;;5085102;28;20032;-67
2021/07/03 04:14:13;;;;;;;7.35;5.38;;;14.20;74.10;;;;;;5085307;27;20028;-68
2021/07/03 04:16:38;;;;;;;8.65;5.63;;;14.20;74.20;;;;;;5084475;27;20039;-67
2021/07/03 04:19:04;;;;;;;6.38;5.22;;;14.20;74.40;;;;;;5085293;28;20024;-67
2021/07/03 04:21:29;;;;;;;7.43;5.75;;;14.20;74.60;;;;;;5082620;28;20115;-68
2021/07/03 04:23:55;;;;;;;7.38;5.97;;;14.10;74.60;;;;;;5086277;28;20024;-67
2021/07/03 04:26:20;;;;;;;6.80;5.57;;;14.10;74.70;;;;;;5087816;27;20127;-68
2021/07/03 04:28:46;;;;;;;9.90;6.00;;;14.10;75.00;;;;;;5087119;27;20032;-67
2021/07/03 04:31:12;;;;;;;8.02;5.88;;;14.10;75.00;;;;;;5084244;27;20040;-67
2021/07/03 04:33:37;;;;;;;6.57;5.88;;;14.10;75.00;;;;;;5086440;27;20024;-67
2021/07/03 04:36:03;;;;;;;8.48;6.47;;;14.10;75.30;;;;;;5087604;28;20059;-67
2021/07/03 04:38:29;;;;;;;7.75;6.63;;;14.10;75.40;;;;;;5082972;27;20530;-67
2021/07/03 04:40:54;;;;;;;7.78;6.53;;;14.10;75.50;;;;;;5077092;28;20044;-67
2021/07/03 04:43:20;;;;;;;9.82;6.82;;;14.10;75.60;;;;;;5083087;28;20093;-67
2021/07/03 04:45:46;;;;;;;9.70;6.78;;;14.10;75.70;;;;;;5086550;27;20131;-67
2021/07/03 04:48:13;;;;;;;9.68;6.85;;;14.10;76.00;;;;;;5083447;28;20051;-67
2021/07/03 04:50:38;;;;;;;7.78;6.68;;;14.10;76.20;;;;;;5087414;27;20028;-67
2021/07/03 04:53:05;;;;;;;10.90;6.47;;;14.10;76.50;;;;;;5087001;27;20073;-67
2021/07/03 04:55:31;;;;;;;11.90;8.32;;;14.10;76.50;;;;;;5079251;28;20037;-67
2021/07/03 04:57:57;;;;;;;8.45;7.47;;;14.20;76.60;;;;;;5093282;27;20020;-67
2021/07/03 05:00:23;;;;;;;7.82;6.70;;;14.20;76.80;;;;;;5084391;27;20052;-67
2021/07/03 05:02:48;;;;;;;10.00;6.93;;;14.30;77.00;;;;;;5086969;28;20081;-67
2021/07/03 05:05:14;;;;;;;8.02;6.50;;;14.30;77.00;;;;;;5085290;27;20028;-67
2021/07/03 05:07:43;;;;;;;7.78;6.43;;;14.40;77.10;;;;;;5084600;28;20515;-67
2021/07/03 05:10:12;;;;;;;8.10;6.60;;;14.40;77.20;;;;;;5100832;27;20039;-67
2021/07/03 05:12:38;;;;;;;8.18;6.32;;;14.50;77.00;;;;;;5085246;27;20036;-67
2021/07/03 05:15:05;;;;;;;10.13;7.47;;;14.60;77.00;;;;;;5084136;28;20040;-65
2021/07/03 05:17:30;;;;;;;9.15;7.18;;;14.70;76.90;;;;;;5078267;28;20043;-67
2021/07/03 05:19:56;;;;;;;8.65;7.40;;;14.70;76.60;;;;;;5085253;28;20525;-67
2021/07/03 05:22:22;;;;;;;9.80;7.20;;;14.80;76.80;;;;;;5086402;27;20040;-67
2021/07/03 05:24:47;;;;;;;10.55;7.43;;;14.90;76.70;;;;;;5086633;27;20030;-67
2021/07/03 05:27:13;;;;;;;9.82;7.13;;;15.00;76.60;;;;;;5097840;27;20064;-67
2021/07/03 05:29:39;;;;;;;10.38;7.53;;;15.00;76.30;;;;;;5090333;27;20039;-68
2021/07/03 05:32:05;;;;;;;8.32;7.38;;;15.10;76.30;;;;;;5090389;28;20034;-67
2021/07/03 05:34:30;;;;;;;9.05;7.28;;;15.20;76.30;;;;;;5087723;27;20039;-67
2021/07/03 05:36:57;;;;;;;9.82;7.22;;;15.30;76.10;;;;;;5090188;27;20043;-67
2021/07/03 05:39:23;;;;;;;8.18;7.00;;;15.40;76.80;;;;;;5088396;28;20036;-66
2021/07/03 05:41:49;;;;;;;10.68;7.13;;;15.50;76.00;;;;;;5087256;27;20090;-67
2021/07/03 05:44:17;;;;;;;7.63;6.80;;;15.60;76.00;;;;;;5086018;28;20531;-68
2021/07/03 05:46:43;;;;;;;9.13;6.85;;;15.70;75.90;;;;;;5086113;27;20056;-67
2021/07/03 05:49:09;;;;;;;9.30;7.32;;;15.70;75.40;;;;;;5090087;27;20117;-67
2021/07/03 05:51:36;;;;;;;9.65;7.07;;;15.80;75.60;;;;;;5088033;28;20063;-67
2021/07/03 05:54:02;;;;;;;11.25;7.72;;;15.90;75.80;;;;;;5087200;27;20042;-67
2021/07/03 05:56:27;;;;;;;10.13;7.50;;;16.00;75.50;;;;;;5090454;27;20032;-67
2021/07/03 05:58:55;;;;;;;8.90;6.93;;;16.10;75.40;;;;;;5090312;28;20405;-68
2021/07/03 06:01:21;;;;;;;9.73;7.60;;;16.20;75.30;;;;;;5084165;27;20653;-67
2021/07/03 06:03:47;;;;;;;9.27;7.47;;;16.30;75.20;;;;;;5086691;28;20115;-67
2021/07/03 06:06:13;;;;;;;7.78;6.75;;;16.30;75.30;;;;;;5086639;27;20040;-67
2021/07/03 06:08:38;;;;;;;8.68;6.65;;;16.40;75.30;;;;;;5089241;27;20050;-67
2021/07/03 06:11:04;;;;;;;9.88;7.13;;;16.50;75.40;;;;;;5086454;28;20040;-66
2021/07/03 06:13:30;;;;;;;8.02;6.75;;;16.60;75.20;;;;;;5083493;27;20028;-65
2021/07/03 06:15:56;;;;;;;9.80;6.97;;;16.70;75.10;;;;;;5061276;28;20882;-65
2021/07/03 06:18:22;;;;;;;7.85;6.35;;;16.80;74.80;;;;;;5070542;27;20042;-66
2021/07/03 06:20:47;;;;;;;8.15;7.18;;;16.90;74.90;;;;;;5070529;27;20571;-65
2021/07/03 06:23:13;;;;;;;11.88;6.95;;;17.00;74.50;;;;;;5068372;28;20035;-66
2021/07/03 06:25:38;;;;;;;9.18;7.07;;;17.10;74.10;;;;;;5066701;27;20043;-65
2021/07/03 06:28:04;;;;;;;8.45;7.28;;;17.20;73.80;;;;;;5067899;28;20517;-65
2021/07/03 06:30:30;;;;;;;9.32;6.95;;;17.20;74.50;;;;;;5070682;27;20051;-65
2021/07/03 06:32:55;;;;;;;7.22;6.25;;;17.30;73.50;;;;;;5070088;27;20043;-65
2021/07/03 06:35:21;;;;;;;9.02;7.07;;;17.40;73.30;;;;;;5069497;28;20051;-65
2021/07/03 06:37:47;;;;;;;7.57;6.78;;;17.50;73.50;;;;;;5068388;28;20388;-65
2021/07/03 06:40:13;;;;;;;8.40;6.53;;;17.50;73.50;;;;;;5068946;28;20036;-65
2021/07/03 06:42:38;;;;;;;8.57;6.90;;;17.60;73.60;;;;;;5072073;27;20105;-65
2021/07/03 06:45:05;;;;;;;7.60;6.28;;;17.70;73.50;;;;;;5069974;27;20081;-65
2021/07/03 06:47:31;;;;;;;8.07;7.15;;;17.80;73.50;;;;;;5070231;28;20511;-66
2021/07/03 06:49:57;;;;;;;7.75;6.70;;;17.90;73.30;;;;;;5071447;27;20028;-66
2021/07/03 06:52:22;;;;;;;8.05;6.75;;;18.00;73.00;;;;;;5071954;28;20047;-66
2021/07/03 06:54:48;;;;;;;7.78;6.78;;;18.10;74.00;;;;;;5061425;28;20109;-66
2021/07/03 06:57:14;;;;;;;8.30;7.00;;;18.10;73.30;;;;;;5086019;27;20078;-66
2021/07/03 06:59:40;;;;;;;8.15;6.85;;;18.30;73.20;;;;;;5070165;28;20043;-65
2021/07/03 07:02:06;;;;;;;6.95;6.25;;;18.40;72.60;;;;;;5084759;27;20543;-65
2021/07/03 07:04:31;;;;;;;7.63;6.82;;;18.50;72.50;;;;;;5070595;27;20037;-65
2021/07/03 07:06:58;;;;;;;7.28;6.55;;;18.50;72.50;;;;;;5074229;28;22450;-66
2021/07/03 07:09:24;;;;;;;8.10;6.90;;;18.60;72.40;;;;;;5070897;27;20066;-66
2021/07/03 07:11:51;;;;;;;8.90;7.95;;;18.70;72.20;;;;;;5069630;28;22317;-65
2021/07/03 07:14:17;;;;;;;11.38;6.93;;;18.80;72.20;;;;;;5070339;27;20039;-65
2021/07/03 07:16:42;;;;;;;8.27;6.82;;;18.90;71.90;;;;;;5069714;27;20040;-65
2021/07/03 07:19:08;;;;;;;7.57;6.55;;;18.90;71.80;;;;;;5069314;28;20085;-65
2021/07/03 07:21:34;;;;;;;10.20;7.07;;;19.00;71.60;;;;;;5072717;27;20567;-64
2021/07/03 07:24:02;;;;;;;9.32;7.30;;;19.00;71.60;;;;;;5072750;28;20411;-65
2021/07/03 07:26:27;;;;;;;8.55;7.45;;;19.10;72.00;;;;;;5081218;28;20042;-65
2021/07/03 07:28:53;;;;;;;7.80;7.00;;;19.20;71.80;;;;;;5078473;28;20028;-65
2021/07/03 07:31:20;;;;;;;8.27;6.55;;;19.30;71.70;;;;;;5083011;28;20043;-65
2021/07/03 07:33:46;;;;;;;8.68;7.18;;;19.40;71.60;;;;;;5082797;28;20028;-66
2021/07/03 07:36:12;;;;;;;7.60;6.78;;;19.50;71.40;;;;;;5081873;28;20043;-65
2021/07/03 07:38:38;;;;;;;8.50;7.35;;;19.50;71.00;;;;;;5076874;27;20036;-65
2021/07/03 07:41:04;;;;;;;8.57;7.22;;;19.60;71.10;;;;;;5078760;27;20032;-65
2021/07/03 07:43:30;;;;;;;8.85;6.75;;;19.80;71.80;;;;;;5081311;28;20096;-66
2021/07/03 07:45:56;;;;;;;8.68;6.90;;;19.90;70.40;;;;;;5081891;27;20043;-66
2021/07/03 07:48:23;;;;;;;8.05;6.35;;;20.00;70.00;;;;;;5083029;28;20036;-66
2021/07/03 07:50:49;;;;;;;9.38;6.90;;;20.10;69.70;;;;;;5081838;28;20024;-65
2021/07/03 07:53:15;;;;;;;6.95;6.25;;;20.20;69.30;;;;;;5083421;27;20028;-66
2021/07/03 07:55:40;;;;;;;10.95;7.00;;;20.30;69.30;;;;;;5079309;28;20518;-65
2021/07/03 07:58:06;;;;;;;11.20;6.82;;;20.40;69.00;;;;;;5083756;27;20097;-65
2021/07/03 08:00:31;;;;;;;8.25;6.53;;;20.50;69.00;;;;;;5080885;27;20150;-66
2021/07/03 08:02:57;;;;;;;9.18;6.47;;;20.60;68.90;;;;;;5083342;28;20335;-66
2021/07/03 08:05:24;;;;;;;7.90;6.68;;;20.70;68.50;;;;;;5083541;27;20042;-66
2021/07/03 08:07:50;;;;;;;7.63;6.50;;;20.70;68.30;;;;;;5083033;28;20167;-65
2021/07/03 08:10:16;;;;;;;7.18;6.47;;;20.90;67.90;;;;;;5082122;27;20139;-66
2021/07/03 08:12:42;;;;;;;7.20;5.90;;;20.90;67.10;;;;;;5076358;27;20127;-65
2021/07/03 08:15:09;;;;;;;6.15;5.35;;;21.00;66.40;;;;;;5080357;28;20043;-65
2021/07/03 08:17:42;;;;;;;7.10;6.35;;;21.10;66.90;;;;;;5083322;27;20032;-66
2021/07/03 08:20:08;;;;;;;5.82;5.22;;;21.20;66.20;;;;;;5081674;28;20503;-65
2021/07/03 08:22:34;;;;;;;9.25;5.25;;;21.30;66.20;;;;;;5081550;27;20063;-66
2021/07/03 08:25:00;;;;;;;5.82;4.78;;;21.40;66.20;;;;;;5080525;27;20071;-66
2021/07/03 08:27:25;;;;;;;5.82;4.72;;;21.50;65.80;;;;;;5084792;27;20384;-66
2021/07/03 08:29:51;;;;;;;6.18;4.82;;;21.60;65.60;;;;;;5083856;27;20054;-66
2021/07/03 08:32:16;;;;;;;5.32;4.07;;;21.80;65.20;;;;;;5084380;28;20047;-66
2021/07/03 08:34:42;;;;;;;5.53;4.30;;;21.90;64.60;;;;;;5082507;28;20043;-66
2021/07/03 08:37:07;;;;;;;4.35;3.95;;;22.00;64.00;;;;;;5083868;27;20048;-66
2021/07/03 08:39:33;;;;;;;5.40;4.40;;;22.20;63.30;;;;;;5084167;28;20032;-66
2021/07/03 08:41:59;;;;;;;4.55;3.85;;;22.30;62.50;;;;;;5084177;27;20419;-66
2021/07/03 08:44:24;;;;;;;5.20;4.35;;;22.40;62.20;;;;;;5083025;27;20028;-66
2021/07/03 08:46:50;;;;;;;6.32;3.85;;;22.60;61.20;;;;;;5082522;28;20043;-66
2021/07/03 08:49:17;;;;;;;4.90;4.43;;;22.70;61.40;;;;;;5084105;27;20033;-66
2021/07/03 08:51:46;;;;;;;3.90;3.60;;;22.80;60.90;;;;;;5085016;28;20746;-66
2021/07/03 08:54:12;;;;;;;4.05;3.65;;;23.00;59.50;;;;;;5078037;28;20043;-66
2021/07/03 08:56:37;;;;;;;3.92;3.63;;;23.10;59.60;;;;;;5081052;27;20021;-66
2021/07/03 08:59:22;;;;;;;4.15;3.85;;;23.20;59.20;;;;;;5086522;28;20024;-66
2021/07/03 09:01:50;;;;;;;5.75;3.78;;;23.30;57.70;;;;;;5086174;27;20074;-67
2021/07/03 09:04:16;;;;;;;4.15;3.75;;;23.40;58.00;;;;;;5101875;27;20024;-66
2021/07/03 09:06:42;;;;;;;3.75;3.45;;;23.50;57.80;;;;;;5083668;28;20049;-66
2021/07/03 09:09:07;;;;;;;3.45;3.15;;;23.60;57.20;;;;;;5086456;28;20032;-66
2021/07/03 09:11:34;;;;;;;4.25;3.42;;;23.70;57.20;;;;;;5086501;28;20044;-66
2021/07/03 09:14:07;;;;;;;3.80;3.50;;;23.80;56.20;;;;;;5089274;27;20052;-65
2021/07/03 09:16:36;;;;;;;4.35;3.72;;;23.80;55.90;;;;;;5088567;27;20032;-66
2021/07/03 09:19:04;;;;;;;3.40;3.10;;;23.90;55.40;;;;;;5089264;28;20024;-68
2021/07/03 09:21:31;;;;;;;3.47;3.17;;;24.00;55.20;;;;;;5089703;27;20028;-66
2021/07/03 09:23:59;;;;;;;4.30;2.95;;;24.00;55.00;;;;;;5089311;28;20032;-66
2021/07/03 09:26:25;;;;;;;3.30;2.97;;;24.10;54.90;;;;;;5089792;27;20341;-66
2021/07/03 09:28:51;;;;;;;4.72;3.50;;;24.20;54.60;;;;;;5089972;27;20507;-66
2021/07/03 09:31:18;;;;;;;3.35;3.15;;;24.30;53.40;;;;;;5090065;28;20459;-66
2021/07/03 09:33:49;;;;;;;4.22;3.40;;;24.40;54.00;;;;;;5089116;27;20024;-66
2021/07/03 09:36:29;;;;;;;3.25;2.95;;;24.50;53.40;;;;;;5089465;28;20044;-66
2021/07/03 09:38:57;;;;;;;3.92;3.22;;;24.60;53.20;;;;;;5088108;28;20105;-66
2021/07/03 09:41:29;;;;;;;4.10;3.50;;;24.70;53.50;;;;;;5089547;27;20032;-65
2021/07/03 09:43:56;;;;;;;3.78;3.10;;;24.70;51.00;;;;;;5089474;28;20105;-66
2021/07/03 09:46:27;;;;;;;3.08;2.88;;;24.80;52.00;;;;;;5090070;27;20062;-66
2021/07/03 09:48:55;;;;;;;3.38;3.08;;;24.80;52.10;;;;;;5082216;28;20032;-66
2021/07/03 09:51:31;;;;;;;3.10;2.80;;;24.80;52.40;;;;;;5085288;28;22104;-66
2021/07/03 09:53:58;;;;;;;5.50;3.13;;;24.90;51.50;;;;;;5086871;27;20028;-66
2021/07/03 09:56:25;;;;;;;3.25;3.05;;;25.00;51.20;;;;;;5087411;27;20398;-66
2021/07/03 09:58:51;;;;;;;5.15;3.10;;;25.00;51.00;;;;;;5089247;28;20044;-66
2021/07/03 10:01:16;;;;;;;3.00;2.80;;;25.00;50.90;;;;;;5087520;28;20047;-66
2021/07/03 10:03:43;;;;;;;2.95;2.67;;;25.00;51.00;;;;;;5087952;28;20032;-66
2021/07/03 10:06:30;;;;;;;3.50;3.20;;;25.10;51.10;;;;;;5086745;27;20573;-66
2021/07/03 10:09:02;;;;;;;3.40;2.70;;;25.20;50.50;;;;;;5086325;27;20039;-66
2021/07/03 10:11:30;;;;;;;3.13;2.60;;;25.30;49.60;;;;;;5085594;28;20059;-66
2021/07/03 10:14:02;;;;;;;5.10;3.05;;;25.40;50.00;;;;;;5089507;27;20036;-66
2021/07/03 10:16:29;;;;;;;3.00;2.70;;;25.50;49.90;;;;;;5086747;27;20043;-66
2021/07/03 10:19:14;;;;;;;3.50;3.20;;;25.60;49.20;;;;;;5087130;27;20044;-66
2021/07/03 10:21:43;;;;;;;3.88;3.15;;;25.70;46.70;;;;;;5089322;27;21864;-66
2021/07/03 10:24:21;;;;;;;3.40;3.10;;;25.80;48.00;;;;;;5083822;28;20044;-66
2021/07/03 10:26:48;;;;;;;2.90;2.67;;;25.80;45.80;;;;;;5088162;28;20020;-66
2021/07/03 10:29:23;;;;;;;2.65;2.38;;;25.80;47.50;;;;;;5088603;27;20036;-66
2021/07/03 10:31:52;;;;;;;3.35;3.08;;;25.80;47.70;;;;;;5088037;28;20096;-66
2021/07/03 10:34:32;;;;;;;2.75;2.55;;;25.80;48.40;;;;;;5087611;27;20056;-66
2021/07/03 10:37:03;;;;;;;3.20;2.90;;;25.80;46.10;;;;;;5086824;28;20035;-66
2021/07/03 10:39:30;;;;;;;2.63;2.42;;;25.90;46.40;;;;;;5088523;28;20028;-67
2021/07/03 10:41:56;;;;;;;2.80;2.60;;;25.90;45.60;;;;;;5088427;27;20082;-66
2021/07/03 10:44:22;;;;;;;4.10;2.60;;;26.00;46.40;;;;;;5088002;27;20508;-66
2021/07/03 10:46:48;;;;;;;3.00;2.80;;;26.00;45.40;;;;;;5080741;27;20378;-66
2021/07/03 10:49:16;;;;;;;2.72;2.53;;;26.00;45.60;;;;;;5087901;27;20123;-66
2021/07/03 10:51:43;;;;;;;2.70;2.50;;;26.10;45.70;;;;;;5088666;28;20617;-65
2021/07/03 10:54:09;;;;;;;3.13;2.92;;;26.10;45.40;;;;;;5087262;27;20488;-66
2021/07/03 10:56:40;;;;;;;3.30;2.75;;;26.10;45.30;;;;;;5088134;27;20024;-66
2021/07/03 10:59:12;;;;;;;2.60;2.40;;;26.20;43.50;;;;;;5103984;27;20056;-66
2021/07/03 11:01:39;;;;;;;2.85;2.65;;;26.10;43.90;;;;;;5084635;28;20403;-66
2021/07/03 11:04:16;;;;;;;3.00;2.70;;;26.10;44.50;;;;;;5086887;28;20111;-66
2021/07/03 11:06:48;;;;;;;3.72;2.95;;;26.10;44.60;;;;;;5087731;27;20100;-66
2021/07/03 11:09:40;;;;;;;6.18;3.22;;;26.00;43.60;;;;;;5086117;28;20614;-66
2021/07/03 11:12:13;;;;;;;3.38;2.63;;;26.00;45.00;;;;;;5084577;28;20032;-66
2021/07/03 11:14:46;;;;;;;3.63;2.90;;;26.00;43.00;;;;;;5086944;27;20038;-66
2021/07/03 11:17:14;;;;;;;4.53;2.70;;;26.00;44.80;;;;;;5094893;27;20097;-66
2021/07/03 11:19:43;;;;;;;3.10;2.80;;;26.00;44.70;;;;;;5087613;28;20499;-66
2021/07/03 11:22:11;;;;;;;3.90;2.70;;;26.00;45.00;;;;;;5087312;27;20451;-66
2021/07/03 11:24:49;;;;;;;2.83;2.63;;;26.00;45.40;;;;;;5086287;27;20032;-66
2021/07/03 11:27:24;;;;;;;3.22;2.67;;;26.10;44.60;;;;;;5088126;28;20043;-66
2021/07/03 11:29:50;;;;;;;2.58;2.38;;;26.20;44.10;;;;;;5103439;27;20055;-66
2021/07/03 11:32:15;;;;;;;2.97;2.67;;;26.20;45.10;;;;;;5088374;27;20076;-66
2021/07/03 11:34:53;;;;;;;2.60;2.40;;;26.30;45.20;;;;;;5086031;27;20073;-66
2021/07/03 11:37:45;;;;;;;2.40;2.20;;;26.40;44.70;;;;;;5087498;27;20040;-66
2021/07/03 11:40:21;;;;;;;2.88;2.65;;;26.40;44.00;;;;;;5083918;28;20044;-66
2021/07/03 11:42:51;;;;;;;3.10;2.80;;;26.50;44.70;;;;;;5086164;27;20576;-66
2021/07/03 11:45:23;;;;;;;2.70;2.50;;;26.50;44.90;;;;;;5086476;27;20078;-66
2021/07/03 11:47:55;;;;;;;4.70;2.92;;;26.50;45.10;;;;;;5087202;28;20452;-66
2021/07/03 11:50:20;;;;;;;2.95;2.67;;;26.50;43.90;;;;;;5087829;27;20043;-66
2021/07/03 11:52:53;;;;;;;2.92;2.67;;;26.50;44.70;;;;;;5083286;27;20040;-66
2021/07/03 11:55:40;;;;;;;2.88;2.67;;;26.50;44.40;;;;;;5083878;28;20466;-66
2021/07/03 11:58:11;;;;;;;4.00;2.92;;;26.40;43.00;;;;;;5085532;28;20503;-66
2021/07/03 12:00:37;;;;;;;2.78;2.58;;;26.40;45.60;;;;;;5084539;27;20410;-66
2021/07/03 12:03:09;;;;;;;3.05;2.85;;;26.40;45.00;;;;;;5086836;28;20029;-66
2021/07/03 12:05:38;;;;;;;3.47;2.83;;;26.40;45.90;;;;;;5086547;27;20036;-66
2021/07/03 12:08:22;;;;;;;2.78;2.53;;;26.40;44.60;;;;;;5055201;28;20495;-66
2021/07/03 12:10:49;;;;;;;2.67;2.42;;;26.50;45.00;;;;;;5082940;28;20058;-66
2021/07/03 12:13:22;;;;;;;3.88;3.10;;;26.50;45.20;;;;;;5086405;27;20055;-66
2021/07/03 12:15:58;;;;;;;3.00;2.80;;;26.60;44.10;;;;;;5087744;28;20082;-66
2021/07/03 12:18:25;;;;;;;2.60;2.40;;;26.60;44.30;;;;;;5102793;27;20097;-66
2021/07/03 12:21:06;;;;;;;3.30;2.45;;;26.70;45.20;;;;;;5087556;27;20036;-67
2021/07/03 12:23:33;;;;;;;2.58;2.38;;;26.70;44.10;;;;;;5086515;28;20028;-66
2021/07/03 12:26:00;;;;;;;2.55;2.35;;;26.80;44.50;;;;;;5087120;27;20031;-66
2021/07/03 12:28:26;;;;;;;2.70;2.30;;;26.90;44.40;;;;;;5086507;27;20503;-66
2021/07/03 12:30:52;;;;;;;3.17;2.35;;;26.90;44.20;;;;;;5086999;28;20058;-66
2021/07/03 12:33:17;;;;;;;2.80;2.60;;;27.00;43.90;;;;;;5086422;27;20028;-66
2021/07/03 12:35:52;;;;;;;2.88;2.58;;;27.00;43.70;;;;;;5087087;28;20086;-66
2021/07/03 12:38:26;;;;;;;2.78;2.58;;;27.10;43.40;;;;;;5087927;27;20020;-66
2021/07/03 12:40:53;;;;;;;2.72;2.50;;;27.20;44.10;;;;;;5086742;27;20043;-66
2021/07/03 12:43:27;;;;;;;2.45;2.25;;;27.20;44.60;;;;;;5086694;28;20032;-66
2021/07/03 12:46:04;;;;;;;2.70;2.53;;;27.20;44.10;;;;;;5087008;27;20032;-66
2021/07/03 12:48:38;;;;;;;2.95;2.65;;;27.30;43.00;;;;;;5086488;27;20362;-66